Terminal Aerodrome Forecast
Issued by NWS Sterling, VA

Current Version | Previous Version | Text Only | Print | Product List | Glossary Off
Versions: 1 2 3 4 5 6 7 8 9 10 11 12 13 14 15 16 17 18 19 20 21 22 23 24

000
FTUS41 KLWX 260500
TAFDCA
TAF
KDCA 260529Z 2606/2706 18006KT P6SM OVC130
     FM261600 20010KT P6SM VCTS BKN050CB BKN130
     FM270000 19005KT P6SM FEW050 SCT130=

USA.gov is the U.S. government's official web portal to all federal, state and local government web resources and services.